Time;durP1;ratioP1;P1;durP2;ratioP2;P2;SDS_P1;SDS_P2;PMS_P1;PMS_P2;Temp;Humidity;BMP_temperature;BMP_pressure;BME280_temperature;BME280_humidity;BME280_pressure;Samples;Min_cycle;Max_cycle;Signal;HPM_P1;HPM_P2
2022/04/15 00:00:42;;;;;;;5.00;1.65;;;11.70;99.90;;;;;;4428928;32;20061;-68
2022/04/15 00:03:08;;;;;;;1.50;1.23;;;11.80;99.90;;;;;;4433463;32;20065;-68
2022/04/15 00:05:40;;;;;;;1.58;1.30;;;11.70;99.90;;;;;;4434026;32;20081;-69
2022/04/15 00:08:09;;;;;;;3.72;0.82;;;11.70;99.90;;;;;;4435578;32;20093;-68
2022/04/15 00:10:35;;;;;;;1.40;0.70;;;11.60;99.90;;;;;;4432952;32;20111;-68
2022/04/15 00:13:05;;;;;;;0.73;0.73;;;11.60;99.90;;;;;;4431116;32;20208;-68
2022/04/15 00:15:30;;;;;;;2.25;1.17;;;11.60;99.90;;;;;;4432342;32;20073;-68
2022/04/15 00:17:56;;;;;;;2.35;1.23;;;11.50;99.90;;;;;;4433518;32;20089;-69
2022/04/15 00:20:22;;;;;;;1.77;1.20;;;11.50;99.90;;;;;;4438012;32;20081;-69
2022/04/15 00:22:48;;;;;;;0.77;0.77;;;11.50;99.90;;;;;;4434360;32;20096;-69
2022/04/15 00:25:13;;;;;;;0.52;0.52;;;11.50;99.90;;;;;;4435959;32;20089;-68
2022/04/15 00:27:40;;;;;;;0.70;0.70;;;11.40;99.90;;;;;;4437339;32;20136;-68
2022/04/15 00:30:08;;;;;;;1.58;0.93;;;11.50;99.90;;;;;;4437421;32;20426;-68
2022/04/15 00:32:34;;;;;;;1.15;1.02;;;11.40;99.90;;;;;;4435200;32;20119;-69
2022/04/15 00:34:59;;;;;;;0.85;0.60;;;11.40;99.90;;;;;;4435496;32;20089;-69
2022/04/15 00:37:25;;;;;;;2.83;1.20;;;11.40;99.90;;;;;;4438478;32;20085;-69
2022/04/15 00:39:52;;;;;;;0.50;0.50;;;11.40;99.90;;;;;;4434194;32;20093;-69
2022/04/15 00:42:19;;;;;;;0.57;0.57;;;11.40;99.90;;;;;;4436857;32;20058;-69
2022/04/15 00:44:45;;;;;;;0.80;0.80;;;11.40;99.90;;;;;;4435880;32;20112;-69
2022/04/15 00:47:40;;;;;;;0.80;0.77;;;11.50;99.90;;;;;;4434067;32;20061;-69
2022/04/15 00:50:06;;;;;;;1.83;1.27;;;11.40;99.90;;;;;;4432981;32;20160;-68
2022/04/15 00:52:37;;;;;;;2.03;1.02;;;11.40;99.90;;;;;;4434119;32;20136;-68
2022/04/15 00:55:04;;;;;;;6.90;1.40;;;11.40;99.90;;;;;;4440214;32;20077;-69
2022/04/15 00:57:31;;;;;;;0.60;0.60;;;11.40;99.90;;;;;;4433549;32;20077;-69
2022/04/15 01:00:00;;;;;;;0.98;0.80;;;11.30;99.90;;;;;;4429017;32;20088;-69
2022/04/15 01:02:27;;;;;;;1.58;0.65;;;11.30;99.90;;;;;;4440319;32;20324;-69
2022/04/15 01:04:55;;;;;;;4.40;1.20;;;11.30;99.90;;;;;;4436744;32;20073;-69
2022/04/15 01:07:25;;;;;;;0.88;0.88;;;11.30;99.90;;;;;;4434528;32;20094;-69
2022/04/15 01:09:52;;;;;;;0.70;0.70;;;11.30;99.90;;;;;;4435624;32;20571;-69
2022/04/15 01:12:20;;;;;;;0.60;0.60;;;11.30;99.90;;;;;;4435156;32;20064;-69
2022/04/15 01:14:48;;;;;;;2.00;1.10;;;11.30;99.90;;;;;;4433016;32;20073;-69
2022/04/15 01:17:13;;;;;;;0.70;0.70;;;11.20;99.90;;;;;;4438394;32;20537;-69
2022/04/15 01:19:39;;;;;;;0.77;0.77;;;11.20;99.90;;;;;;4438706;32;20065;-69
2022/04/15 01:22:11;;;;;;;0.62;0.62;;;11.30;99.90;;;;;;4436161;32;20065;-69
2022/04/15 01:24:38;;;;;;;4.95;1.00;;;11.20;99.90;;;;;;4433179;32;20545;-69
2022/04/15 01:27:04;;;;;;;0.65;0.65;;;11.10;99.90;;;;;;4435894;32;20094;-69
2022/04/15 01:29:37;;;;;;;0.93;0.88;;;11.00;99.90;;;;;;4439774;32;20163;-69
2022/04/15 01:32:04;;;;;;;0.70;0.70;;;10.90;99.90;;;;;;4437282;32;20189;-68
2022/04/15 01:34:30;;;;;;;1.58;0.88;;;10.70;99.90;;;;;;4434343;32;20069;-69
2022/04/15 01:36:56;;;;;;;0.70;0.70;;;10.70;99.90;;;;;;4439360;32;20088;-69
2022/04/15 01:39:21;;;;;;;2.83;0.70;;;10.70;99.90;;;;;;4439669;32;20081;-69
2022/04/15 01:41:47;;;;;;;0.98;0.93;;;10.70;99.90;;;;;;4437420;32;20288;-69
2022/04/15 01:44:15;;;;;;;0.40;0.40;;;10.60;99.90;;;;;;4436215;32;20141;-70
2022/04/15 01:46:42;;;;;;;0.70;0.55;;;10.70;99.90;;;;;;4440424;32;20090;-69
2022/04/15 01:49:08;;;;;;;0.62;0.62;;;10.60;99.90;;;;;;4436182;32;20093;-69
2022/04/15 01:51:34;;;;;;;0.40;0.40;;;10.60;99.90;;;;;;4436684;32;20076;-68
2022/04/15 01:54:00;;;;;;;0.40;0.40;;;10.40;99.90;;;;;;4435070;32;20607;-69
2022/04/15 01:56:25;;;;;;;2.55;1.12;;;10.30;99.90;;;;;;4437647;32;20070;-68
2022/04/15 01:58:51;;;;;;;0.40;0.40;;;10.20;99.90;;;;;;4436500;32;20069;-69
2022/04/15 02:01:18;;;;;;;0.37;0.37;;;10.10;99.90;;;;;;4438732;32;20073;-70
2022/04/15 02:03:43;;;;;;;1.05;0.95;;;10.00;99.90;;;;;;4433557;32;20080;-69
2022/04/15 02:06:08;;;;;;;0.60;0.60;;;10.00;99.90;;;;;;4434275;32;20120;-69
2022/04/15 02:08:34;;;;;;;0.52;0.52;;;9.90;99.90;;;;;;4438583;32;20121;-70
2022/04/15 02:11:00;;;;;;;0.50;0.50;;;9.90;99.90;;;;;;4437650;32;20062;-69
2022/04/15 02:13:25;;;;;;;1.98;0.52;;;9.80;99.90;;;;;;4434442;32;20143;-69
2022/04/15 02:15:50;;;;;;;0.65;0.65;;;9.70;99.90;;;;;;4434956;32;20073;-68
2022/04/15 02:18:16;;;;;;;0.60;0.60;;;9.80;99.90;;;;;;4437600;32;20073;-69
2022/04/15 02:20:41;;;;;;;0.30;0.30;;;9.70;99.90;;;;;;4436321;32;20065;-69
2022/04/15 02:23:07;;;;;;;0.28;0.28;;;9.70;99.90;;;;;;4433938;32;20702;-69
2022/04/15 02:25:32;;;;;;;0.50;0.50;;;9.70;99.90;;;;;;4437357;32;20192;-68
2022/04/15 02:27:58;;;;;;;0.45;0.45;;;9.80;99.90;;;;;;4435279;32;20144;-69
2022/04/15 02:30:23;;;;;;;0.62;0.62;;;9.80;99.90;;;;;;4435669;32;20717;-69
2022/04/15 02:32:49;;;;;;;0.45;0.45;;;9.70;99.90;;;;;;4435606;32;20064;-70
2022/04/15 02:35:14;;;;;;;2.12;1.12;;;9.70;99.90;;;;;;4434916;32;20090;-70
2022/04/15 02:37:40;;;;;;;1.02;0.75;;;9.70;99.90;;;;;;4429544;32;20065;-69
2022/04/15 02:40:07;;;;;;;0.40;0.40;;;9.60;99.90;;;;;;4433816;32;20080;-69
2022/04/15 02:42:33;;;;;;;0.30;0.30;;;9.50;99.90;;;;;;4431715;32;20068;-69
2022/04/15 02:44:59;;;;;;;0.70;0.70;;;9.50;99.90;;;;;;4433239;32;20070;-69
2022/04/15 02:47:25;;;;;;;0.40;0.40;;;9.50;99.90;;;;;;4438259;32;20128;-69
2022/04/15 02:49:50;;;;;;;0.60;0.60;;;9.40;99.90;;;;;;4437957;32;20568;-68
2022/04/15 02:52:16;;;;;;;0.52;0.52;;;9.40;99.90;;;;;;4434858;32;20089;-69
2022/04/15 02:54:41;;;;;;;16.45;0.90;;;9.30;99.90;;;;;;4433196;32;20430;-69
2022/04/15 02:57:07;;;;;;;0.50;0.50;;;9.30;99.90;;;;;;4429799;32;20386;-68
2022/04/15 02:59:33;;;;;;;0.40;0.40;;;9.30;99.90;;;;;;4432665;32;20069;-68
2022/04/15 03:01:58;;;;;;;3.70;1.50;;;9.20;99.90;;;;;;4434341;32;20069;-68
2022/04/15 03:04:24;;;;;;;0.47;0.45;;;9.20;99.90;;;;;;4435391;32;20098;-69
2022/04/15 03:06:49;;;;;;;0.85;0.55;;;9.40;99.90;;;;;;4435184;32;20070;-69
2022/04/15 03:09:15;;;;;;;0.43;0.43;;;9.40;99.90;;;;;;4431002;32;20080;-69
2022/04/15 03:11:41;;;;;;;0.85;0.85;;;9.40;99.90;;;;;;4427775;32;20808;-68
2022/04/15 03:14:07;;;;;;;1.90;1.20;;;9.40;99.90;;;;;;4434177;32;20099;-68
2022/04/15 03:16:33;;;;;;;0.80;0.65;;;9.50;99.90;;;;;;4437977;32;20062;-69
2022/04/15 03:18:59;;;;;;;0.52;0.50;;;9.40;99.90;;;;;;4434822;32;20073;-70
2022/04/15 03:21:25;;;;;;;0.45;0.45;;;9.30;99.90;;;;;;4436138;32;20124;-69
2022/04/15 03:23:51;;;;;;;0.75;0.75;;;9.30;99.90;;;;;;4434733;32;20065;-69
2022/04/15 03:26:16;;;;;;;0.40;0.40;;;9.30;99.90;;;;;;4433349;32;20205;-69
2022/04/15 03:28:42;;;;;;;0.30;0.30;;;9.10;99.90;;;;;;4432232;32;20513;-69
2022/04/15 03:31:09;;;;;;;0.68;0.65;;;9.10;99.90;;;;;;4433642;32;20123;-69
2022/04/15 03:33:35;;;;;;;0.80;0.80;;;9.20;99.90;;;;;;4434773;32;20089;-69
2022/04/15 03:36:00;;;;;;;0.47;0.47;;;9.30;99.90;;;;;;4433181;32;20065;-69
2022/04/15 03:38:26;;;;;;;0.70;0.70;;;9.30;99.90;;;;;;4431967;32;20081;-69
2022/04/15 03:40:51;;;;;;;1.25;0.73;;;9.20;99.90;;;;;;4432552;32;20060;-69
2022/04/15 03:43:17;;;;;;;0.50;0.50;;;9.20;99.90;;;;;;4435031;32;20062;-69
2022/04/15 03:45:42;;;;;;;0.60;0.60;;;9.30;99.90;;;;;;4432873;32;20077;-69
2022/04/15 03:48:08;;;;;;;0.73;0.73;;;9.20;99.90;;;;;;4432252;32;20488;-69
2022/04/15 03:50:33;;;;;;;1.33;0.70;;;9.30;99.90;;;;;;4434112;32;20073;-69
2022/04/15 03:52:59;;;;;;;0.43;0.43;;;9.30;99.90;;;;;;4430362;32;20070;-69
2022/04/15 03:55:25;;;;;;;0.50;0.50;;;9.20;99.90;;;;;;4432320;32;20627;-69
2022/04/15 03:57:51;;;;;;;0.52;0.52;;;9.20;99.90;;;;;;4437471;32;20136;-69
2022/04/15 04:00:19;;;;;;;1.73;1.02;;;9.20;99.90;;;;;;4436191;32;20065;-70
2022/04/15 04:02:47;;;;;;;0.70;0.70;;;9.20;99.90;;;;;;4436835;32;20081;-69
2022/04/15 04:05:13;;;;;;;1.12;0.82;;;9.20;99.90;;;;;;4435729;32;20129;-69
2022/04/15 04:07:39;;;;;;;0.60;0.60;;;9.20;99.90;;;;;;4432384;32;20125;-69
2022/04/15 04:10:05;;;;;;;1.95;0.98;;;9.30;99.90;;;;;;4434668;32;20100;-69
2022/04/15 04:12:33;;;;;;;1.40;0.95;;;9.20;99.90;;;;;;4435577;32;20069;-70
2022/04/15 04:15:02;;;;;;;1.00;0.93;;;9.30;99.90;;;;;;4435215;32;20127;-70
2022/04/15 04:17:27;;;;;;;0.70;0.70;;;9.20;99.90;;;;;;4434471;32;20150;-70
2022/04/15 04:19:53;;;;;;;0.50;0.50;;;9.20;99.90;;;;;;4434254;32;20076;-70
2022/04/15 04:22:18;;;;;;;0.73;0.50;;;9.20;99.90;;;;;;4434231;32;20066;-70
2022/04/15 04:24:45;;;;;;;0.43;0.43;;;9.20;99.90;;;;;;4435043;32;20131;-70
2022/04/15 04:27:10;;;;;;;2.83;0.95;;;9.10;99.90;;;;;;4432710;32;20146;-69
2022/04/15 04:29:36;;;;;;;0.65;0.47;;;9.20;99.90;;;;;;4432675;32;20520;-68
2022/04/15 04:32:01;;;;;;;0.40;0.40;;;9.20;99.90;;;;;;4433760;32;20061;-69
2022/04/15 04:34:27;;;;;;;0.50;0.50;;;9.20;99.90;;;;;;4438881;32;20077;-70
2022/04/15 04:36:53;;;;;;;0.50;0.50;;;9.20;99.90;;;;;;4436982;32;20096;-70
2022/04/15 04:39:18;;;;;;;1.87;0.85;;;9.30;99.90;;;;;;4435586;32;20690;-69
2022/04/15 04:41:44;;;;;;;0.50;0.50;;;9.30;99.90;;;;;;4433913;32;20105;-70
2022/04/15 04:44:09;;;;;;;0.60;0.60;;;9.30;99.90;;;;;;4431448;32;20090;-69
2022/04/15 04:46:35;;;;;;;2.55;1.42;;;9.30;99.90;;;;;;4437153;32;20060;-68
2022/04/15 04:49:01;;;;;;;2.22;1.00;;;9.30;99.90;;;;;;4435329;32;20659;-69
2022/04/15 04:51:27;;;;;;;0.75;0.52;;;9.20;99.90;;;;;;4438060;32;20058;-70
2022/04/15 04:53:53;;;;;;;0.40;0.40;;;9.20;99.90;;;;;;4435001;32;20074;-68
2022/04/15 04:56:18;;;;;;;0.60;0.60;;;9.20;99.90;;;;;;4434748;32;20081;-69
2022/04/15 04:58:44;;;;;;;0.70;0.60;;;9.20;99.90;;;;;;4434107;32;20064;-69
2022/04/15 05:01:09;;;;;;;0.32;0.32;;;9.20;99.90;;;;;;4436077;32;20098;-70
2022/04/15 05:03:34;;;;;;;2.50;0.82;;;9.30;99.90;;;;;;4434202;32;20501;-69
2022/04/15 05:06:00;;;;;;;1.12;0.73;;;9.20;99.90;;;;;;4434465;32;20112;-69
2022/04/15 05:08:25;;;;;;;3.10;1.55;;;9.20;99.90;;;;;;4436046;32;20088;-69
2022/04/15 05:10:51;;;;;;;0.57;0.57;;;9.20;99.90;;;;;;4431972;32;20132;-69
2022/04/15 05:13:16;;;;;;;0.40;0.40;;;9.30;99.90;;;;;;4422290;32;20129;-68
2022/04/15 05:15:42;;;;;;;0.40;0.40;;;9.30;99.90;;;;;;4424740;32;20073;-69
2022/04/15 05:18:08;;;;;;;0.93;0.70;;;9.20;99.90;;;;;;4426346;32;20082;-69
2022/04/15 05:20:34;;;;;;;0.50;0.50;;;9.30;99.90;;;;;;4436602;32;20092;-69
2022/04/15 05:23:00;;;;;;;0.43;0.43;;;9.20;99.90;;;;;;4436962;32;20105;-69
2022/04/15 05:25:25;;;;;;;0.30;0.30;;;9.30;99.90;;;;;;4433209;32;20496;-69
2022/04/15 05:27:52;;;;;;;0.80;0.80;;;9.20;99.90;;;;;;4430957;32;20123;-69
2022/04/15 05:30:18;;;;;;;0.73;0.73;;;9.10;99.90;;;;;;4434495;32;20065;-69
2022/04/15 05:32:43;;;;;;;1.70;1.27;;;9.20;99.90;;;;;;4434679;32;20086;-69
2022/04/15 05:35:09;;;;;;;1.65;0.85;;;9.30;99.90;;;;;;4436653;32;20089;-69
2022/04/15 05:37:35;;;;;;;0.80;0.80;;;9.30;99.90;;;;;;4438231;32;20084;-69
2022/04/15 05:40:01;;;;;;;0.60;0.60;;;9.20;99.90;;;;;;4433908;32;20089;-69
2022/04/15 05:42:28;;;;;;;0.37;0.37;;;9.30;99.90;;;;;;4426292;32;20487;-69
2022/04/15 05:44:54;;;;;;;0.40;0.40;;;9.40;99.90;;;;;;4431540;32;20564;-69
2022/04/15 05:47:19;;;;;;;0.40;0.40;;;9.40;99.90;;;;;;4433372;32;20096;-69
2022/04/15 05:49:45;;;;;;;2.22;0.88;;;9.40;99.90;;;;;;4434436;32;20101;-69
2022/04/15 05:52:11;;;;;;;0.55;0.55;;;9.40;99.90;;;;;;4431323;32;20070;-69
2022/04/15 05:54:36;;;;;;;0.57;0.57;;;9.50;99.90;;;;;;4436901;32;20103;-69
2022/04/15 05:57:02;;;;;;;0.52;0.52;;;9.40;99.90;;;;;;4437188;32;20073;-69
2022/04/15 05:59:28;;;;;;;0.30;0.30;;;9.40;99.90;;;;;;4433655;32;20061;-69
2022/04/15 06:01:54;;;;;;;0.60;0.60;;;9.40;99.90;;;;;;4439095;32;20081;-69
2022/04/15 06:04:19;;;;;;;0.50;0.50;;;9.40;99.90;;;;;;4440495;32;20536;-69
2022/04/15 06:06:46;;;;;;;1.05;0.70;;;9.50;99.90;;;;;;4434961;32;20396;-69
2022/04/15 06:09:12;;;;;;;0.37;0.37;;;9.40;99.90;;;;;;4433252;32;20062;-69
2022/04/15 06:11:39;;;;;;;0.93;0.75;;;9.40;99.90;;;;;;4430683;32;20482;-69
2022/04/15 06:14:06;;;;;;;1.37;0.85;;;9.60;99.90;;;;;;4426973;32;20089;-69
2022/04/15 06:16:32;;;;;;;0.32;0.32;;;9.50;99.90;;;;;;4431635;32;20105;-69
2022/04/15 06:18:58;;;;;;;0.30;0.30;;;9.50;99.90;;;;;;4432101;32;20065;-69
2022/04/15 06:21:24;;;;;;;0.60;0.60;;;9.40;99.90;;;;;;4436564;32;20097;-69
2022/04/15 06:23:50;;;;;;;0.50;0.50;;;9.40;99.90;;;;;;4435817;32;20061;-69
2022/04/15 06:26:15;;;;;;;0.40;0.40;;;9.50;99.90;;;;;;4433761;32;20090;-69
2022/04/15 06:28:40;;;;;;;2.20;0.88;;;9.50;99.90;;;;;;4433600;32;20065;-69
2022/04/15 06:31:06;;;;;;;0.32;0.32;;;9.60;99.90;;;;;;4433035;32;20144;-69
2022/04/15 06:33:31;;;;;;;0.30;0.30;;;9.50;99.90;;;;;;4429862;32;20073;-69
2022/04/15 06:35:59;;;;;;;2.33;1.40;;;9.50;99.90;;;;;;4433840;32;20077;-69
2022/04/15 06:38:25;;;;;;;0.40;0.40;;;9.60;99.90;;;;;;4435301;32;20572;-69
2022/04/15 06:40:50;;;;;;;0.45;0.45;;;9.60;99.90;;;;;;4432972;32;20069;-69
2022/04/15 06:43:16;;;;;;;0.50;0.50;;;9.60;99.90;;;;;;4423823;32;20072;-69
2022/04/15 06:45:41;;;;;;;4.80;0.80;;;9.60;99.90;;;;;;4432572;32;20550;-69
2022/04/15 06:48:07;;;;;;;0.52;0.40;;;9.60;99.90;;;;;;4431997;32;20499;-69
2022/04/15 06:50:33;;;;;;;0.80;0.70;;;9.60;99.90;;;;;;4432073;32;20069;-70
2022/04/15 06:52:58;;;;;;;3.05;0.52;;;9.70;99.90;;;;;;4435537;32;20409;-69
2022/04/15 06:55:24;;;;;;;0.70;0.65;;;9.70;99.90;;;;;;4429809;32;20073;-69
2022/04/15 06:57:49;;;;;;;0.30;0.30;;;9.80;99.90;;;;;;4433386;32;20066;-69
2022/04/15 07:00:15;;;;;;;0.68;0.68;;;9.70;99.90;;;;;;4431969;32;20124;-69
2022/04/15 07:02:41;;;;;;;0.88;0.85;;;9.70;99.90;;;;;;4433091;32;20088;-70
2022/04/15 07:05:09;;;;;;;13.90;0.82;;;9.70;99.90;;;;;;4433141;32;20119;-69
2022/04/15 07:07:35;;;;;;;0.65;0.65;;;9.60;99.90;;;;;;4432755;32;20702;-69
2022/04/15 07:10:01;;;;;;;8.18;0.90;;;9.60;99.90;;;;;;4430515;32;20073;-69
2022/04/15 07:12:27;;;;;;;0.50;0.50;;;9.70;99.90;;;;;;4426489;32;20775;-69
2022/04/15 07:14:52;;;;;;;0.62;0.60;;;9.80;99.90;;;;;;4433754;32;20532;-70
2022/04/15 07:17:18;;;;;;;0.75;0.50;;;9.80;99.90;;;;;;4421522;32;20082;-69
2022/04/15 07:19:43;;;;;;;1.15;0.60;;;9.70;99.90;;;;;;4432144;32;20107;-69
2022/04/15 07:22:09;;;;;;;0.32;0.32;;;9.60;99.90;;;;;;4432477;32;20343;-70
2022/04/15 07:24:34;;;;;;;0.40;0.40;;;9.70;99.90;;;;;;4433471;32;20077;-69
2022/04/15 07:27:01;;;;;;;0.40;0.40;;;9.60;99.90;;;;;;4433741;32;20069;-69
2022/04/15 07:29:26;;;;;;;0.40;0.40;;;9.70;99.90;;;;;;4432104;32;20658;-69
2022/04/15 07:31:52;;;;;;;0.40;0.40;;;9.70;99.90;;;;;;4430640;32;20076;-69
2022/04/15 07:34:18;;;;;;;0.45;0.45;;;9.60;99.90;;;;;;4432001;32;20073;-69
2022/04/15 07:36:45;;;;;;;0.47;0.47;;;9.50;99.90;;;;;;4432704;32;84644;-70
2022/04/15 07:39:14;;;;;;;1.00;0.70;;;9.60;99.90;;;;;;4428391;32;20148;-69
2022/04/15 07:41:40;;;;;;;0.40;0.40;;;9.60;99.90;;;;;;4432633;32;20065;-70
2022/04/15 07:44:08;;;;;;;0.32;0.32;;;9.60;99.90;;;;;;4425278;32;20073;-70
2022/04/15 07:46:34;;;;;;;4.12;0.90;;;9.60;99.90;;;;;;4435470;32;20073;-70
2022/04/15 07:49:00;;;;;;;0.50;0.50;;;9.70;99.90;;;;;;4433833;32;20134;-70
2022/04/15 07:51:25;;;;;;;1.27;0.65;;;9.70;99.90;;;;;;4437198;32;20057;-70
2022/04/15 07:53:51;;;;;;;0.40;0.40;;;9.60;99.90;;;;;;4431999;32;20053;-70
2022/04/15 07:56:16;;;;;;;0.37;0.37;;;9.70;99.90;;;;;;4429941;32;20062;-70
2022/04/15 07:58:42;;;;;;;0.40;0.40;;;9.80;99.90;;;;;;4431284;32;20537;-70
2022/04/15 08:01:09;;;;;;;0.40;0.40;;;9.80;99.90;;;;;;4431254;32;20426;-70
2022/04/15 08:03:34;;;;;;;0.50;0.50;;;9.90;99.90;;;;;;4433232;32;20536;-70
2022/04/15 08:06:00;;;;;;;0.35;0.35;;;9.80;99.90;;;;;;4430158;32;20076;-70
2022/04/15 08:08:26;;;;;;;0.50;0.50;;;9.70;99.90;;;;;;4430035;32;20057;-70
2022/04/15 08:10:51;;;;;;;0.40;0.40;;;9.80;99.90;;;;;;4427781;32;20069;-70
2022/04/15 08:13:17;;;;;;;0.40;0.40;;;9.90;99.90;;;;;;4427552;32;20073;-71
2022/04/15 08:15:43;;;;;;;1.45;0.82;;;10.00;99.90;;;;;;4430788;32;20089;-69
2022/04/15 08:18:09;;;;;;;0.40;0.40;;;9.90;99.90;;;;;;4432067;32;20073;-69
2022/04/15 08:20:34;;;;;;;0.60;0.60;;;10.00;99.90;;;;;;4429656;32;20061;-69
2022/04/15 08:23:00;;;;;;;2.37;0.88;;;9.90;99.90;;;;;;4433146;32;20414;-69
2022/04/15 08:25:26;;;;;;;0.68;0.47;;;9.80;99.90;;;;;;4431085;32;20123;-69
2022/04/15 08:27:51;;;;;;;0.60;0.60;;;9.80;99.90;;;;;;4431558;32;20094;-69
2022/04/15 08:30:17;;;;;;;0.80;0.80;;;9.90;99.90;;;;;;4435722;32;20084;-69
2022/04/15 08:32:42;;;;;;;5.47;0.70;;;9.80;99.90;;;;;;4427939;32;20512;-70
2022/04/15 08:35:11;;;;;;;0.62;0.57;;;9.80;99.90;;;;;;4430413;32;20577;-69
2022/04/15 08:37:38;;;;;;;0.30;0.30;;;9.90;99.90;;;;;;4430951;32;20061;-69
2022/04/15 08:40:04;;;;;;;0.62;0.62;;;9.80;99.90;;;;;;4433415;32;20082;-69
2022/04/15 08:42:30;;;;;;;0.45;0.45;;;9.80;99.90;;;;;;4432763;32;20069;-69
2022/04/15 08:44:56;;;;;;;2.30;0.77;;;9.70;99.90;;;;;;4431703;32;20070;-69
2022/04/15 08:47:24;;;;;;;0.57;0.57;;;9.70;99.90;;;;;;4432396;32;20073;-70
2022/04/15 08:49:49;;;;;;;0.40;0.40;;;9.70;99.90;;;;;;4434003;32;20132;-70
2022/04/15 08:52:17;;;;;;;0.40;0.40;;;9.80;99.90;;;;;;4431309;32;20064;-69
2022/04/15 08:54:44;;;;;;;2.92;1.02;;;9.90;99.90;;;;;;4432650;32;20085;-70
2022/04/15 08:57:10;;;;;;;1.12;1.02;;;9.90;99.90;;;;;;4430143;32;20128;-69
2022/04/15 08:59:40;;;;;;;0.60;0.60;;;10.00;99.90;;;;;;4435021;32;20167;-69
2022/04/15 09:02:05;;;;;;;0.68;0.68;;;10.00;99.90;;;;;;4431212;32;20058;-69
2022/04/15 09:04:32;;;;;;;0.50;0.50;;;10.00;99.90;;;;;;4434747;32;20085;-68
2022/04/15 09:06:59;;;;;;;0.82;0.40;;;10.00;99.90;;;;;;4432112;32;20053;-69
2022/04/15 09:09:33;;;;;;;1.08;0.82;;;10.00;99.90;;;;;;4434971;32;20065;-69
2022/04/15 09:12:02;;;;;;;0.70;0.70;;;10.00;99.90;;;;;;4432669;32;20592;-70
2022/04/15 09:14:28;;;;;;;0.60;0.60;;;10.00;99.90;;;;;;4430023;32;20069;-70
2022/04/15 09:16:54;;;;;;;1.12;0.80;;;10.00;99.90;;;;;;4432844;32;20147;-70
2022/04/15 09:19:20;;;;;;;0.65;0.60;;;10.00;99.90;;;;;;4432664;32;20073;-69
2022/04/15 09:21:55;;;;;;;14.15;0.95;;;9.90;99.90;;;;;;4431096;32;20081;-69
2022/04/15 09:24:37;;;;;;;0.73;0.60;;;10.00;99.90;;;;;;4429719;32;20102;-69
2022/04/15 09:27:04;;;;;;;0.40;0.40;;;9.90;99.90;;;;;;4431728;32;20484;-70
2022/04/15 09:29:39;;;;;;;0.30;0.30;;;10.00;99.90;;;;;;4432683;32;20116;-69
2022/04/15 09:32:08;;;;;;;0.40;0.40;;;10.00;99.90;;;;;;4433664;32;20139;-69
2022/04/15 09:34:34;;;;;;;1.67;0.80;;;10.00;99.90;;;;;;4435523;32;20127;-69
2022/04/15 09:37:05;;;;;;;0.35;0.35;;;10.00;99.90;;;;;;4433971;32;20062;-69
2022/04/15 09:39:30;;;;;;;0.82;0.75;;;9.90;99.90;;;;;;4426186;32;20077;-69
2022/04/15 09:41:56;;;;;;;0.35;0.35;;;9.90;99.90;;;;;;4428341;32;20562;-69
2022/04/15 09:44:31;;;;;;;3.22;1.27;;;10.00;99.90;;;;;;4428746;32;20085;-70
2022/04/15 09:46:57;;;;;;;6.72;0.55;;;10.00;99.90;;;;;;4430335;32;20553;-70
2022/04/15 09:49:25;;;;;;;0.82;0.80;;;9.90;99.90;;;;;;4429624;32;20053;-69
2022/04/15 09:51:51;;;;;;;0.30;0.30;;;9.80;99.90;;;;;;4432417;32;20128;-70
2022/04/15 09:54:26;;;;;;;2.90;0.82;;;9.80;99.90;;;;;;4430793;32;20066;-69
2022/04/15 09:56:54;;;;;;;0.45;0.45;;;9.70;99.90;;;;;;4433830;32;20073;-69
2022/04/15 09:59:22;;;;;;;1.20;0.80;;;9.70;99.90;;;;;;4431427;32;20571;-70
2022/04/15 10:01:53;;;;;;;0.40;0.40;;;9.60;99.90;;;;;;4432183;32;20142;-70
2022/04/15 10:04:19;;;;;;;;;;;9.60;99.90;;;;;;4429230;32;20085;-69
2022/04/15 10:06:45;;;;;;;0.43;0.28;;;9.60;99.90;;;;;;4434090;32;19944;-69
2022/04/15 10:09:12;;;;;;;0.43;0.43;;;9.60;99.90;;;;;;4432230;32;20069;-69
2022/04/15 10:11:40;;;;;;;0.57;0.57;;;9.70;99.90;;;;;;4432264;32;20077;-69
2022/04/15 10:14:08;;;;;;;0.68;0.68;;;9.70;99.90;;;;;;4431263;32;20073;-69
2022/04/15 10:16:36;;;;;;;0.50;0.50;;;9.80;99.90;;;;;;4429399;32;20081;-69
2022/04/15 10:19:02;;;;;;;0.73;0.55;;;9.70;99.90;;;;;;4430372;32;20073;-70
2022/04/15 10:21:32;;;;;;;0.60;0.60;;;9.70;99.90;;;;;;4433895;32;20131;-69
2022/04/15 10:24:00;;;;;;;0.30;0.30;;;9.70;99.90;;;;;;4434080;32;20136;-70
2022/04/15 10:26:27;;;;;;;0.30;0.30;;;9.80;99.90;;;;;;4432644;32;20088;-69
2022/04/15 10:28:53;;;;;;;0.40;0.40;;;9.90;99.90;;;;;;4431971;32;20457;-69
2022/04/15 10:31:19;;;;;;;0.50;0.40;;;10.00;99.90;;;;;;4433055;32;20105;-69
2022/04/15 10:33:49;;;;;;;0.43;0.43;;;10.00;99.90;;;;;;4431953;32;20103;-70
2022/04/15 10:36:19;;;;;;;1.17;0.52;;;10.00;99.90;;;;;;4431080;32;20066;-70
2022/04/15 10:39:06;;;;;;;0.50;0.50;;;10.10;99.90;;;;;;4433940;32;20081;-70
2022/04/15 10:41:51;;;;;;;0.50;0.50;;;10.00;99.90;;;;;;4429762;32;20102;-69
2022/04/15 10:44:35;;;;;;;0.37;0.37;;;10.00;99.90;;;;;;4433759;32;20143;-69
2022/04/15 10:47:09;;;;;;;0.40;0.40;;;10.00;99.90;;;;;;4432471;32;20056;-70
2022/04/15 10:49:36;;;;;;;0.30;0.30;;;9.90;99.90;;;;;;4432278;32;20639;-70
2022/04/15 10:52:15;;;;;;;0.40;0.40;;;9.90;99.90;;;;;;4436896;32;20076;-70
2022/04/15 10:54:45;;;;;;;0.30;0.30;;;9.80;99.90;;;;;;4431401;32;20062;-69
2022/04/15 10:57:14;;;;;;;3.57;0.53;;;9.80;99.90;;;;;;4421479;32;20134;-69
2022/04/15 11:01:16;;;;;;;0.90;0.68;;;9.70;99.90;;;;;;4433925;32;20175;-69
2022/04/15 11:02:49;;;;;;;0.60;0.60;;;9.80;99.90;;;;;;4421669;32;20090;-70
2022/04/15 11:05:34;;;;;;;0.62;0.62;;;9.90;99.90;;;;;;4428934;32;20078;-70
2022/04/15 11:08:06;;;;;;;0.85;0.57;;;9.90;99.90;;;;;;4429848;32;20138;-70
2022/04/15 11:10:45;;;;;;;0.40;0.40;;;10.00;99.90;;;;;;4427831;32;20058;-70
2022/04/15 11:13:30;;;;;;;1.00;0.47;;;10.00;99.90;;;;;;4430511;32;20066;-70
2022/04/15 11:16:01;;;;;;;0.43;0.43;;;10.00;99.90;;;;;;4433467;32;20077;-70
2022/04/15 11:19:03;;;;;;;0.50;0.50;;;10.00;99.90;;;;;;4430664;32;20069;-69
2022/04/15 11:21:32;;;;;;;0.75;0.47;;;9.90;99.90;;;;;;4431070;32;20446;-69
2022/04/15 11:24:01;;;;;;;0.50;0.50;;;10.00;99.90;;;;;;4433018;32;20065;-70
2022/04/15 11:26:28;;;;;;;0.40;0.40;;;10.00;99.90;;;;;;4430401;32;20057;-69
2022/04/15 11:28:57;;;;;;;0.45;0.45;;;10.10;99.90;;;;;;4430557;32;20073;-69
2022/04/15 11:31:26;;;;;;;0.30;0.30;;;10.20;99.90;;;;;;4429482;32;20160;-70
2022/04/15 11:33:54;;;;;;;0.40;0.40;;;10.20;99.90;;;;;;4434030;32;20136;-70
2022/04/15 11:36:21;;;;;;;0.37;0.37;;;10.20;99.90;;;;;;4433474;32;20164;-70
2022/04/15 11:38:49;;;;;;;0.30;0.30;;;10.30;99.90;;;;;;4427522;32;20084;-71
2022/04/15 11:41:18;;;;;;;0.35;0.35;;;10.30;99.90;;;;;;4431114;32;20586;-69
2022/04/15 11:43:57;;;;;;;0.30;0.30;;;10.30;99.90;;;;;;4434728;32;20081;-69
2022/04/15 11:46:23;;;;;;;0.28;0.28;;;10.20;99.90;;;;;;4433335;32;20077;-70
2022/04/15 11:48:50;;;;;;;0.50;0.50;;;10.20;99.90;;;;;;4437079;32;20096;-68
2022/04/15 11:51:17;;;;;;;1.40;0.52;;;10.20;99.90;;;;;;4434685;32;20627;-70
2022/04/15 11:53:43;;;;;;;0.40;0.40;;;10.20;99.90;;;;;;4435049;32;20105;-70
2022/04/15 11:56:09;;;;;;;0.20;0.20;;;10.20;99.90;;;;;;4433923;32;20073;-68
2022/04/15 11:58:35;;;;;;;0.30;0.30;;;10.20;99.90;;;;;;4433124;32;20158;-69
2022/04/15 12:01:02;;;;;;;1.30;0.85;;;10.20;99.90;;;;;;4433308;32;20073;-68
2022/04/15 12:03:29;;;;;;;0.30;0.30;;;10.30;99.90;;;;;;4432636;32;20458;-69
2022/04/15 12:05:57;;;;;;;0.30;0.30;;;10.40;99.90;;;;;;4432491;32;20120;-70
2022/04/15 12:08:24;;;;;;;0.30;0.30;;;10.50;99.90;;;;;;4431687;32;20833;-69
2022/04/15 12:10:50;;;;;;;0.40;0.40;;;10.50;99.90;;;;;;4430368;32;20476;-69
2022/04/15 12:13:17;;;;;;;0.50;0.50;;;10.50;99.90;;;;;;4427693;32;20073;-69
2022/04/15 12:15:45;;;;;;;1.02;0.43;;;10.50;99.90;;;;;;4426565;32;20494;-70
2022/04/15 12:18:11;;;;;;;1.98;0.40;;;10.50;99.90;;;;;;4434077;32;20085;-69
2022/04/15 12:20:39;;;;;;;0.30;0.30;;;10.60;99.90;;;;;;4433967;32;20057;-68
2022/04/15 12:23:10;;;;;;;0.30;0.30;;;10.60;99.90;;;;;;4433565;32;20473;-68
2022/04/15 12:26:08;;;;;;;0.50;0.50;;;10.50;99.90;;;;;;4431920;32;20077;-69
2022/04/15 12:29:52;;;;;;;0.40;0.40;;;10.50;99.90;;;;;;4421871;32;20088;-69
2022/04/15 12:31:25;;;;;;;0.30;0.30;;;10.50;99.90;;;;;;4425899;32;20155;-69
2022/04/15 12:33:50;;;;;;;0.40;0.40;;;10.60;99.90;;;;;;4432295;32;20477;-69
2022/04/15 12:36:17;;;;;;;0.30;0.30;;;10.60;99.90;;;;;;4429886;32;20313;-68
2022/04/15 12:38:57;;;;;;;0.30;0.30;;;10.60;99.90;;;;;;4427909;32;20406;-68
2022/04/15 12:41:23;;;;;;;0.30;0.30;;;10.60;99.90;;;;;;4431496;32;20058;-70
2022/04/15 12:43:48;;;;;;;0.30;0.30;;;10.60;99.90;;;;;;4432669;32;20138;-69
2022/04/15 12:46:17;;;;;;;0.30;0.30;;;10.60;99.90;;;;;;4432998;32;20077;-70
2022/04/15 12:48:50;;;;;;;0.90;0.40;;;10.60;99.90;;;;;;4433833;32;20065;-69
2022/04/15 12:51:17;;;;;;;0.40;0.40;;;10.50;99.90;;;;;;4435659;32;20057;-69
2022/04/15 12:53:44;;;;;;;0.30;0.30;;;10.60;99.90;;;;;;4434538;32;20112;-69